createdAt,value
2022-09-28T00:01:21.463Z,99422.31
2022-09-28T00:03:50.789Z,99413.75
2022-09-28T00:06:21.017Z,99412.94
2022-09-28T00:08:50.879Z,99418.03
2022-09-28T00:11:20.876Z,99417.81
2022-09-28T00:13:51.424Z,99414.00
2022-09-28T00:16:21.781Z,99410.78
2022-09-28T00:18:51.315Z,99413.63
2022-09-28T00:21:22.727Z,99406.50
2022-09-28T00:24:12.686Z,99411.25
2022-09-28T00:26:42.240Z,99411.25
2022-09-28T00:29:17.346Z,99407.09
2022-09-28T00:31:45.784Z,99412.56
2022-09-28T00:34:13.944Z,99409.84
2022-09-28T00:36:45.676Z,99403.03
2022-09-28T00:39:16.547Z,99401.75
2022-09-28T00:41:45.619Z,99403.63
2022-09-28T00:44:35.807Z,99395.06
2022-09-28T00:47:13.949Z,99398.78
2022-09-28T00:49:46.459Z,99396.72
2022-09-28T00:52:17.462Z,99396.41
2022-09-28T00:54:48.904Z,99398.78
2022-09-28T00:57:17.542Z,99396.50
2022-09-28T00:59:45.607Z,99397.22
2022-09-28T01:02:13.692Z,99401.97
2022-09-28T01:04:41.935Z,99398.41
2022-09-28T01:07:10.297Z,99397.47
2022-09-28T01:09:40.717Z,99395.53
2022-09-28T01:12:10.370Z,99393.28
2022-09-28T01:14:39.035Z,99396.75
2022-09-28T01:17:13.967Z,99389.69
2022-09-28T01:20:23.951Z,99386.38
2022-09-28T01:23:30.098Z,99386.25
2022-09-28T01:26:37.330Z,99391.97
2022-09-28T01:29:14.765Z,99391.59
2022-09-28T01:31:47.787Z,99385.69
2022-09-28T01:34:20.121Z,99383.97
2022-09-28T01:36:51.124Z,99388.78
2022-09-28T01:39:23.751Z,99391.25
2022-09-28T01:41:54.736Z,99388.66
2022-09-28T01:44:28.661Z,99391.72
2022-09-28T01:47:03.582Z,99392.69
2022-09-28T01:49:36.735Z,99387.66
2022-09-28T01:52:11.829Z,99382.31
2022-09-28T01:54:44.574Z,99389.00
2022-09-28T01:57:18.059Z,99389.84
2022-09-28T01:59:55.905Z,99390.66
2022-09-28T02:02:29.748Z,99387.34
2022-09-28T02:05:02.068Z,99387.56
2022-09-28T02:07:35.536Z,99382.19
2022-09-28T02:10:10.795Z,99380.91
2022-09-28T02:12:42.546Z,99377.22
2022-09-28T02:15:18.180Z,99378.88
2022-09-28T02:17:47.055Z,99378.41
2022-09-28T02:20:15.562Z,99380.31
2022-09-28T02:22:49.092Z,99376.72
2022-09-28T02:25:24.745Z,99382.34
2022-09-28T02:27:58.213Z,99375.56
2022-09-28T02:30:28.001Z,99382.94
2022-09-28T02:33:01.147Z,99377.69
2022-09-28T02:35:29.862Z,99379.72
2022-09-28T02:37:57.918Z,99375.31
2022-09-28T02:40:30.225Z,99375.19
2022-09-28T02:43:06.429Z,99378.16
2022-09-28T02:45:52.348Z,99379.13
2022-09-28T02:49:00.183Z,99379.25
2022-09-28T02:51:43.062Z,99381.97
2022-09-28T02:54:33.740Z,99377.47
2022-09-28T02:57:14.330Z,99378.66
2022-09-28T02:59:51.363Z,99392.44
2022-09-28T03:02:29.031Z,99393.41
2022-09-28T03:05:11.915Z,99385.53
2022-09-28T03:07:46.111Z,99388.88
2022-09-28T03:10:20.074Z,99393.41
2022-09-28T03:12:50.166Z,99395.31
2022-09-28T03:15:24.199Z,99386.03
2022-09-28T03:17:54.249Z,99390.22
2022-09-28T03:20:22.437Z,99398.88
2022-09-28T03:23:12.454Z,99392.34
2022-09-28T03:25:38.490Z,99399.59
2022-09-28T03:28:06.486Z,99401.97
2022-09-28T03:30:34.500Z,99397.31
2022-09-28T03:33:04.426Z,99399.38
2022-09-28T03:35:32.610Z,99398.88
2022-09-28T03:38:00.639Z,99406.84
2022-09-28T03:40:28.656Z,99404.22
2022-09-28T03:42:56.731Z,99400.66
2022-09-28T03:45:25.137Z,99401.28
2022-09-28T03:47:53.333Z,99401.72
2022-09-28T03:50:23.058Z,99397.44
2022-09-28T03:52:54.320Z,99402.22
2022-09-28T03:55:22.359Z,99398.19
2022-09-28T03:57:55.789Z,99397.22
2022-09-28T04:00:24.231Z,99400.66
2022-09-28T04:02:52.194Z,99400.78
2022-09-28T04:05:20.235Z,99399.59
2022-09-28T04:07:49.717Z,99392.22
2022-09-28T04:10:17.758Z,99389.00
2022-09-28T04:12:46.061Z,99393.50
2022-09-28T04:15:14.885Z,99389.38
2022-09-28T04:17:43.153Z,99393.66
2022-09-28T04:20:11.465Z,99387.44
2022-09-28T04:22:39.788Z,99390.91
2022-09-28T04:25:10.252Z,99395.91
2022-09-28T04:27:55.810Z,99395.91
2022-09-28T04:30:24.797Z,99396.97
2022-09-28T04:32:52.719Z,99395.41
2022-09-28T04:35:21.137Z,99387.94
2022-09-28T04:37:49.162Z,99387.34
2022-09-28T04:40:18.635Z,99385.31
2022-09-28T04:42:53.887Z,99398.88
2022-09-28T04:45:21.949Z,99391.25
2022-09-28T04:47:49.997Z,99399.00
2022-09-28T04:50:18.164Z,99395.69
2022-09-28T04:52:46.127Z,99398.28
2022-09-28T04:55:14.559Z,99403.16
2022-09-28T04:57:44.099Z,99408.16
2022-09-28T05:00:13.760Z,99403.75
2022-09-28T05:02:42.137Z,99401.94
2022-09-28T05:05:10.350Z,99393.84
2022-09-28T05:07:38.711Z,99395.66
2022-09-28T05:10:09.772Z,99397.41
2022-09-28T05:12:37.844Z,99402.91
2022-09-28T05:15:08.072Z,99397.53
2022-09-28T05:17:36.378Z,99401.44
2022-09-28T05:20:05.278Z,99398.34
2022-09-28T05:22:34.352Z,99401.81
2022-09-28T05:25:03.020Z,99409.28
2022-09-28T05:27:31.373Z,99416.63
2022-09-28T05:29:59.667Z,99409.50
2022-09-28T05:32:28.999Z,99411.16
2022-09-28T05:34:57.062Z,99414.81
2022-09-28T05:37:25.034Z,99407.59
2022-09-28T05:39:53.030Z,99408.97
2022-09-28T05:42:21.006Z,99408.97
2022-09-28T05:44:49.038Z,99411.31
2022-09-28T05:47:17.227Z,99409.06
2022-09-28T05:49:46.691Z,99415.19
2022-09-28T05:52:15.337Z,99409.56
2022-09-28T05:54:43.675Z,99417.53
2022-09-28T05:57:11.931Z,99419.75
2022-09-28T05:59:40.038Z,99424.97
2022-09-28T06:02:08.351Z,99422.91
2022-09-28T06:04:36.379Z,99429.22
2022-09-28T06:07:05.761Z,99426.94
2022-09-28T06:09:33.769Z,99428.16
2022-09-28T06:12:02.309Z,99422.66
2022-09-28T06:14:31.162Z,99429.81
2022-09-28T06:16:59.316Z,99432.75
2022-09-28T06:19:27.416Z,99441.34
2022-09-28T06:21:56.789Z,99447.91
2022-09-28T06:24:28.546Z,99449.72
2022-09-28T06:26:58.880Z,99451.41
2022-09-28T06:29:26.881Z,99453.78
2022-09-28T06:31:55.557Z,99451.63
2022-09-28T06:34:24.837Z,99448.91
2022-09-28T06:36:52.885Z,99450.78
2022-09-28T06:39:20.940Z,99464.69
2022-09-28T06:41:50.324Z,99466.34
2022-09-28T06:44:18.512Z,99470.91
2022-09-28T06:46:46.574Z,99467.66
2022-09-28T06:49:19.630Z,99468.97
2022-09-28T06:51:47.892Z,99461.50
2022-09-28T06:54:16.085Z,99468.94
2022-09-28T06:56:44.190Z,99471.34
2022-09-28T06:59:13.728Z,99465.78
2022-09-28T07:01:41.827Z,99466.38
2022-09-28T07:04:09.952Z,99468.19
2022-09-28T07:06:38.616Z,99459.03
2022-09-28T07:09:28.112Z,99472.75
2022-09-28T07:11:55.443Z,99466.69
2022-09-28T07:14:45.872Z,99473.16
2022-09-28T07:17:14.674Z,99475.22
2022-09-28T07:19:43.344Z,99474.94
2022-09-28T07:22:18.948Z,99473.78
2022-09-28T07:24:49.159Z,99474.97
2022-09-28T07:27:17.579Z,99472.91
2022-09-28T07:29:46.977Z,99472.53
2022-09-28T07:32:14.951Z,99477.44
2022-09-28T07:34:44.655Z,99485.28
2022-09-28T07:37:13.485Z,99486.59
2022-09-28T07:39:59.250Z,99484.66
2022-09-28T07:42:30.105Z,99500.47
2022-09-28T07:44:59.710Z,99502.97
2022-09-28T07:47:33.900Z,99503.72
2022-09-28T07:50:03.049Z,99506.41
2022-09-28T07:52:31.040Z,99509.97
2022-09-28T07:55:03.319Z,99514.44
2022-09-28T07:57:35.425Z,99513.94
2022-09-28T08:00:08.224Z,99520.91
2022-09-28T08:02:36.044Z,99524.78
2022-09-28T08:05:04.670Z,99524.53
2022-09-28T08:07:34.588Z,99521.03
2022-09-28T08:10:02.796Z,99523.13
2022-09-28T08:12:30.886Z,99521.84
2022-09-28T08:15:00.198Z,99520.72
2022-09-28T08:17:29.830Z,99520.81
2022-09-28T08:20:15.079Z,99531.97
2022-09-28T08:22:43.061Z,99535.63
2022-09-28T08:25:11.087Z,99534.28
2022-09-28T08:27:39.314Z,99533.56
2022-09-28T08:30:08.714Z,99537.66
2022-09-28T08:32:38.225Z,99534.63
2022-09-28T08:35:06.876Z,99530.72
2022-09-28T08:37:34.926Z,99534.91
2022-09-28T08:40:03.281Z,99533.16
2022-09-28T08:42:36.124Z,99536.22
2022-09-28T08:45:08.955Z,99540.34
2022-09-28T08:48:07.197Z,99539.88
2022-09-28T08:50:41.144Z,99542.81
2022-09-28T08:53:33.262Z,99539.56
2022-09-28T08:56:05.008Z,99543.56
2022-09-28T08:58:37.227Z,99544.72
2022-09-28T09:01:11.805Z,99548.78
2022-09-28T09:03:42.475Z,99550.53
2022-09-28T09:06:23.129Z,99558.69
2022-09-28T09:09:01.299Z,99554.91
2022-09-28T09:11:56.258Z,99562.66
2022-09-28T09:14:44.607Z,99558.69
2022-09-28T09:17:23.745Z,99558.41
2022-09-28T09:19:59.834Z,99554.38
2022-09-28T09:22:40.717Z,99562.78
2022-09-28T09:25:19.918Z,99565.38
2022-09-28T09:28:09.474Z,99569.31
2022-09-28T09:30:46.390Z,99567.44
2022-09-28T09:33:45.786Z,99566.50
2022-09-28T09:36:29.468Z,99562.47
2022-09-28T09:39:13.982Z,99566.78
2022-09-28T09:41:53.979Z,99559.53
2022-09-28T09:44:39.972Z,99566.88
2022-09-28T09:47:13.541Z,99568.22
2022-09-28T09:49:46.734Z,99580.66
2022-09-28T09:52:22.354Z,99581.31
2022-09-28T09:54:56.805Z,99582.03
2022-09-28T09:57:27.799Z,99581.84
2022-09-28T09:59:59.550Z,99578.16
2022-09-28T10:02:30.160Z,99591.75
2022-09-28T10:05:03.644Z,99580.66
2022-09-28T10:07:43.464Z,99587.66
2022-09-28T10:10:17.042Z,99582.72
2022-09-28T10:12:45.177Z,99575.09
2022-09-28T10:15:20.199Z,99571.91
2022-09-28T10:17:48.834Z,99572.75
2022-09-28T10:20:17.713Z,99580.22
2022-09-28T10:22:48.275Z,99580.63
2022-09-28T10:25:18.545Z,99578.78
2022-09-28T10:27:52.760Z,99584.53
2022-09-28T10:30:23.551Z,99577.81
2022-09-28T10:32:55.202Z,99577.78
2022-09-28T10:35:27.051Z,99573.16
2022-09-28T10:38:00.135Z,99576.47
2022-09-28T10:40:34.144Z,99577.91
2022-09-28T10:43:03.802Z,99579.81
2022-09-28T10:45:36.982Z,99588.19
2022-09-28T10:48:17.585Z,99587.06
2022-09-28T10:50:59.291Z,99587.22
2022-09-28T10:53:28.934Z,99583.97
2022-09-28T10:55:59.743Z,99576.41
2022-09-28T10:58:31.139Z,99577.72
2022-09-28T11:01:06.253Z,99576.25
2022-09-28T11:03:34.707Z,99578.13
2022-09-28T11:06:06.124Z,99577.25
2022-09-28T11:08:39.645Z,99570.97
2022-09-28T11:11:12.982Z,99569.81
2022-09-28T11:13:44.097Z,99579.63
2022-09-28T11:16:28.560Z,99571.78
2022-09-28T11:18:57.720Z,99571.41
2022-09-28T11:21:27.889Z,99574.13
2022-09-28T11:24:08.704Z,99572.31
2022-09-28T11:26:42.642Z,99569.31
2022-09-28T11:29:27.837Z,99572.09
2022-09-28T11:32:01.297Z,99573.00
2022-09-28T11:34:57.590Z,99564.41
2022-09-28T11:37:47.270Z,99566.38
2022-09-28T11:40:28.097Z,99561.78
2022-09-28T11:43:10.672Z,99564.81
2022-09-28T11:45:52.754Z,99574.59
2022-09-28T11:48:26.775Z,99570.47
2022-09-28T11:50:59.982Z,99568.97
2022-09-28T11:53:35.143Z,99564.31
2022-09-28T11:56:14.734Z,99564.22
2022-09-28T11:58:47.648Z,99557.00
2022-09-28T12:01:27.406Z,99561.25
2022-09-28T12:04:01.668Z,99562.91
2022-09-28T12:06:35.981Z,99563.09
2022-09-28T12:09:11.929Z,99554.84
2022-09-28T12:11:46.783Z,99557.41
2022-09-28T12:14:23.130Z,99558.38
2022-09-28T12:17:07.258Z,99560.69
2022-09-28T12:19:41.126Z,99562.75
2022-09-28T12:22:18.388Z,99563.09
2022-09-28T12:24:50.278Z,99565.03
2022-09-28T12:27:28.463Z,99557.72
2022-09-28T12:30:03.626Z,99551.97
2022-09-28T12:32:39.307Z,99556.28
2022-09-28T12:35:14.821Z,99544.78
2022-09-28T12:38:08.742Z,99555.06
2022-09-28T12:40:42.486Z,99553.53
2022-09-28T12:43:34.154Z,99549.75
2022-09-28T12:46:29.642Z,99551.31
2022-09-28T12:50:20.179Z,99550.22
2022-09-28T12:52:19.466Z,99549.81
2022-09-28T12:55:06.018Z,99557.41
2022-09-28T12:57:49.740Z,99551.50
2022-09-28T13:00:23.545Z,99548.06
2022-09-28T13:03:20.383Z,99552.28
2022-09-28T13:06:21.193Z,99547.34
2022-09-28T13:09:02.506Z,99552.22
2022-09-28T13:11:35.214Z,99554.09
2022-09-28T13:14:23.249Z,99544.06
2022-09-28T13:17:01.774Z,99543.28
2022-09-28T13:19:38.837Z,99545.88
2022-09-28T13:22:20.505Z,99541.50
2022-09-28T13:24:50.513Z,99538.28
2022-09-28T13:27:26.003Z,99534.81
2022-09-28T13:29:55.789Z,99541.00
2022-09-28T13:32:31.585Z,99544.31
2022-09-28T13:35:02.289Z,99541.91
2022-09-28T13:37:30.787Z,99545.66
2022-09-28T13:39:59.502Z,99546.38
2022-09-28T13:42:53.653Z,99542.94
2022-09-28T13:45:44.357Z,99555.66
2022-09-28T13:48:17.476Z,99555.00
2022-09-28T13:51:09.290Z,99548.22
2022-09-28T13:53:53.118Z,99555.91
2022-09-28T13:56:31.370Z,99560.94
2022-09-28T13:59:03.803Z,99573.91
2022-09-28T14:01:37.064Z,99566.19
2022-09-28T14:04:18.551Z,99575.72
2022-09-28T14:06:59.414Z,99569.97
2022-09-28T14:09:41.470Z,99567.28
2022-09-28T14:12:29.104Z,99568.38
2022-09-28T14:14:57.577Z,99581.13
2022-09-28T14:17:55.676Z,99582.44
2022-09-28T14:20:28.300Z,99581.72
2022-09-28T14:23:17.005Z,99581.06
2022-09-28T14:25:47.646Z,99580.94
2022-09-28T14:28:44.289Z,99577.97
2022-09-28T14:31:21.776Z,99584.00
2022-09-28T14:33:58.001Z,99583.25
2022-09-28T14:36:47.582Z,99600.09
2022-09-28T14:39:45.003Z,99600.88
2022-09-28T14:42:16.641Z,99608.94
2022-09-28T14:45:18.736Z,99611.38
2022-09-28T14:48:21.404Z,99621.56
2022-09-28T14:50:50.053Z,99628.72
2022-09-28T14:53:25.107Z,99622.38
2022-09-28T14:55:56.676Z,99628.38
2022-09-28T14:58:27.550Z,99629.84
2022-09-28T15:01:02.542Z,99636.97
2022-09-28T15:03:33.816Z,99627.97
2022-09-28T15:06:02.806Z,99627.50
2022-09-28T15:08:39.618Z,99632.00
2022-09-28T15:11:14.888Z,99640.06
2022-09-28T15:13:44.124Z,99639.34
2022-09-28T15:16:15.386Z,99643.50
2022-09-28T15:19:13.450Z,99646.97
2022-09-28T15:21:44.065Z,99646.66
2022-09-28T15:24:35.152Z,99646.09
2022-09-28T15:27:04.981Z,99654.22
2022-09-28T15:29:33.484Z,99655.00
2022-09-28T15:32:01.869Z,99661.38
2022-09-28T15:34:49.964Z,99661.38
2022-09-28T15:37:21.914Z,99654.56
2022-09-28T15:39:53.215Z,99658.88
2022-09-28T15:42:22.721Z,99669.25
2022-09-28T15:45:26.817Z,99661.91
2022-09-28T15:47:58.653Z,99671.38
2022-09-28T15:50:29.216Z,99665.03
2022-09-28T15:53:01.260Z,99671.66
2022-09-28T15:55:33.088Z,99674.94
2022-09-28T15:58:17.261Z,99669.03
2022-09-28T16:00:46.504Z,99676.53
2022-09-28T16:03:29.425Z,99676.03
2022-09-28T16:06:08.130Z,99677.69
2022-09-28T16:08:42.229Z,99679.63
2022-09-28T16:11:18.496Z,99681.19
2022-09-28T16:14:01.766Z,99689.53
2022-09-28T16:16:34.079Z,99670.50
2022-09-28T16:19:03.684Z,99678.13
2022-09-28T16:21:45.100Z,99685.91
2022-09-28T16:24:24.637Z,99675.94
2022-09-28T16:27:01.090Z,99681.59
2022-09-28T16:29:40.023Z,99685.38
2022-09-28T16:32:38.284Z,99685.53
2022-09-28T16:35:19.301Z,99676.50
2022-09-28T16:37:50.023Z,99681.38
2022-09-28T16:40:18.172Z,99693.00
2022-09-28T16:42:49.258Z,99683.72
2022-09-28T16:45:20.901Z,99689.41
2022-09-28T16:47:52.391Z,99687.88
2022-09-28T16:50:21.521Z,99690.81
2022-09-28T16:53:08.636Z,99691.50
2022-09-28T16:55:41.099Z,99694.66
2022-09-28T16:58:10.831Z,99697.44
2022-09-28T17:00:39.276Z,99701.88
2022-09-28T17:03:14.704Z,99699.06
2022-09-28T17:05:43.330Z,99698.50
2022-09-28T17:08:17.315Z,99701.28
2022-09-28T17:11:13.094Z,99708.22
2022-09-28T17:13:42.232Z,99705.97
2022-09-28T17:16:14.055Z,99709.84
2022-09-28T17:18:46.059Z,99714.25
2022-09-28T17:21:16.644Z,99710.28
2022-09-28T17:23:45.223Z,99716.31
2022-09-28T17:26:19.521Z,99720.34
2022-09-28T17:28:49.096Z,99718.28
2022-09-28T17:31:18.016Z,99721.47
2022-09-28T17:33:46.432Z,99728.69
2022-09-28T17:36:16.894Z,99724.38
2022-09-28T17:38:45.702Z,99721.75
2022-09-28T17:41:20.042Z,99725.44
2022-09-28T17:43:50.510Z,99728.88
2022-09-28T17:46:29.375Z,99731.78
2022-09-28T17:49:00.507Z,99723.63
2022-09-28T17:51:30.217Z,99721.31
2022-09-28T17:54:01.947Z,99722.41
2022-09-28T17:56:32.350Z,99726.78
2022-09-28T17:59:04.926Z,99729.00
2022-09-28T18:01:35.058Z,99727.94
2022-09-28T18:04:05.129Z,99729.78
2022-09-28T18:06:33.908Z,99732.22
2022-09-28T18:09:02.986Z,99732.16
2022-09-28T18:11:31.210Z,99737.09
2022-09-28T18:13:59.496Z,99730.06
2022-09-28T18:16:29.310Z,99732.00
2022-09-28T18:18:57.454Z,99733.09
2022-09-28T18:21:25.545Z,99730.78
2022-09-28T18:23:53.644Z,99739.88
2022-09-28T18:26:21.715Z,99737.13
2022-09-28T18:28:54.466Z,99737.66
2022-09-28T18:31:22.399Z,99733.75
2022-09-28T18:33:51.923Z,99734.34
2022-09-28T18:36:20.053Z,99741.28
2022-09-28T18:38:48.040Z,99742.47
2022-09-28T18:41:17.718Z,99749.91
2022-09-28T18:43:50.250Z,99745.88
2022-09-28T18:46:19.429Z,99747.50
2022-09-28T18:48:48.348Z,99748.38
2022-09-28T18:51:17.771Z,99748.16
2022-09-28T18:53:46.185Z,99756.00
2022-09-28T18:56:19.231Z,99759.00
2022-09-28T18:58:51.200Z,99765.56
2022-09-28T19:01:30.319Z,99761.16
2022-09-28T19:04:01.234Z,99767.84
2022-09-28T19:06:31.879Z,99767.13
2022-09-28T19:09:00.141Z,99762.34
2022-09-28T19:11:30.233Z,99771.41
2022-09-28T19:13:58.276Z,99763.41
2022-09-28T19:16:28.636Z,99769.75
2022-09-28T19:18:57.876Z,99764.00
2022-09-28T19:21:27.158Z,99768.31
2022-09-28T19:23:56.826Z,99771.06
2022-09-28T19:26:27.430Z,99769.72
2022-09-28T19:28:57.013Z,99771.75
2022-09-28T19:31:25.857Z,99775.31
2022-09-28T19:33:53.900Z,99774.34
2022-09-28T19:36:24.072Z,99782.31
2022-09-28T19:38:53.746Z,99774.00
2022-09-28T19:41:45.618Z,99776.97
2022-09-28T19:44:19.901Z,99781.50
2022-09-28T19:46:48.166Z,99777.19
2022-09-28T19:49:19.691Z,99778.47
2022-09-28T19:52:10.983Z,99775.78
2022-09-28T19:54:38.200Z,99788.59
2022-09-28T19:57:08.773Z,99779.28
2022-09-28T19:59:37.612Z,99782.94
2022-09-28T20:02:06.024Z,99784.00
2022-09-28T20:04:34.258Z,99785.09
2022-09-28T20:07:02.418Z,99786.91
2022-09-28T20:09:30.633Z,99782.34
2022-09-28T20:11:58.641Z,99783.63
2022-09-28T20:14:32.061Z,99794.84
2022-09-28T20:17:02.333Z,99792.66
2022-09-28T20:19:31.350Z,99786.78
2022-09-28T20:22:02.144Z,99785.34
2022-09-28T20:24:31.166Z,99789.78
2022-09-28T20:26:59.625Z,99794.69
2022-09-28T20:29:29.299Z,99798.56
2022-09-28T20:31:57.722Z,99795.63
2022-09-28T20:34:26.048Z,99799.66
2022-09-28T20:36:54.143Z,99797.94
2022-09-28T20:39:22.197Z,99791.81
2022-09-28T20:41:50.224Z,99797.47
2022-09-28T20:44:18.405Z,99797.38
2022-09-28T20:46:50.943Z,99797.19
2022-09-28T20:49:19.030Z,99812.47
2022-09-28T20:51:47.097Z,99801.72
2022-09-28T20:54:15.227Z,99802.69
2022-09-28T20:56:43.390Z,99811.78
2022-09-28T20:59:13.495Z,99806.69
2022-09-28T21:01:42.021Z,99805.22
2022-09-28T21:04:12.174Z,99805.63
2022-09-28T21:06:43.639Z,99813.16
2022-09-28T21:09:12.579Z,99818.75
2022-09-28T21:11:41.758Z,99815.09
2022-09-28T21:14:10.858Z,99808.06
2022-09-28T21:16:39.592Z,99816.25
2022-09-28T21:19:07.732Z,99821.38
2022-09-28T21:21:37.226Z,99814.47
2022-09-28T21:24:05.499Z,99814.78
2022-09-28T21:26:35.136Z,99822.53
2022-09-28T21:29:05.164Z,99815.63
2022-09-28T21:31:38.475Z,99824.53
2022-09-28T21:34:06.694Z,99825.16
2022-09-28T21:36:34.815Z,99824.41
2022-09-28T21:39:09.516Z,99827.66
2022-09-28T21:41:38.544Z,99822.75
2022-09-28T21:44:06.876Z,99819.09
2022-09-28T21:46:36.479Z,99828.41
2022-09-28T21:49:06.415Z,99839.19
2022-09-28T21:51:35.266Z,99825.34
2022-09-28T21:54:05.217Z,99831.03
2022-09-28T21:56:34.589Z,99838.13
2022-09-28T21:59:02.962Z,99830.50
2022-09-28T22:01:31.795Z,99833.09
2022-09-28T22:04:00.396Z,99837.47
2022-09-28T22:06:29.234Z,99843.78
2022-09-28T22:08:58.094Z,99842.31
2022-09-28T22:11:29.569Z,99847.81
2022-09-28T22:13:59.758Z,99848.59
2022-09-28T22:16:30.425Z,99850.22
2022-09-28T22:18:59.028Z,99847.72
2022-09-28T22:21:29.131Z,99853.59
2022-09-28T22:24:01.068Z,99856.19
2022-09-28T22:26:33.620Z,99859.00
2022-09-28T22:29:04.397Z,99850.53
2022-09-28T22:31:34.589Z,99851.03
2022-09-28T22:34:03.913Z,99853.66
2022-09-28T22:36:32.070Z,99856.25
2022-09-28T22:39:00.595Z,99851.25
2022-09-28T22:41:30.181Z,99852.31
2022-09-28T22:43:59.110Z,99855.59
2022-09-28T22:46:29.235Z,99857.28
2022-09-28T22:48:59.693Z,99857.34
2022-09-28T22:51:30.264Z,99856.81
2022-09-28T22:53:59.334Z,99853.19
2022-09-28T22:56:27.489Z,99859.53
2022-09-28T22:58:56.936Z,99861.72
2022-09-28T23:01:26.988Z,99856.47
2022-09-28T23:03:56.262Z,99856.75
2022-09-28T23:06:26.186Z,99862.75
2022-09-28T23:08:54.646Z,99858.47
2022-09-28T23:11:22.944Z,99860.47
2022-09-28T23:13:51.615Z,99857.00
2022-09-28T23:16:23.604Z,99858.88
2022-09-28T23:18:51.901Z,99854.69
2022-09-28T23:21:21.735Z,99855.06
2022-09-28T23:23:54.344Z,99851.84
2022-09-28T23:26:24.537Z,99863.13
2022-09-28T23:28:53.288Z,99863.41
2022-09-28T23:31:24.236Z,99857.94
2022-09-28T23:33:52.835Z,99861.69
2022-09-28T23:36:21.193Z,99864.38
2022-09-28T23:38:49.276Z,99870.44
2022-09-28T23:41:17.363Z,99862.72
2022-09-28T23:43:45.392Z,99868.41
2022-09-28T23:46:17.257Z,99872.03
2022-09-28T23:48:49.916Z,99867.94
2022-09-28T23:51:18.223Z,99861.69
2022-09-28T23:53:46.421Z,99871.78
2022-09-28T23:56:15.011Z,99865.28
2022-09-28T23:58:43.167Z,99866.56
